PWSweather.com
Personal Weather Stations
Station Observations
KNCCHINA3
Red Tractor Trail, China Grove, NC 28023

Red Tractor TrailChina Grove, NC 28023

Lat: 35.59751, Lon: -80.60201

Elevation: 800

Station Type: Oregon Scientific WMR 968

http://www.joesweathergarage.com

High Low Average
Temperature 86.7°F30.4°F 69.4°F20.8°F 76.9°F24.9°F
Dew Point 80.6°F27.0°F 57.9°F14.4°F 71.7°F22.1°F
Winds Calm Calm Calm Calm Calm Calm
Wind Gusts -- -- --
Humidity 100% 46% 86%
Pressure 30.01 in1016.30 in 29.77 in1008.10 in -
Precipitation 0.44 in11.20 in - -
Hour Temp Dew Point Humidity Winds Wind Gusts Pressure Precip Precip Rate Daily Precip Total
12:02 AM 71.2°F21.8°C 71.2°F21.8°C 100% - N16091.8 kmh N -- 29.98 in1015.2 mb 0.00 in0.0 mm 0.00 in/hr0.0 mm/hr 0.00 in0.0 mm
12:06 AM 71.1°F21.7°C 71.1°F21.7°C 100% - N16091.8 kmh N -- 29.98 in1015.2 mb 0.00 in0.0 mm 0.00 in/hr0.0 mm/hr 0.00 in0.0 mm
12:11 AM 71.1°F21.7°C 71.1°F21.7°C 100% - N16091.8 kmh N -- 29.98 in1015.2 mb 0.00 in0.0 mm 0.00 in/hr0.0 mm/hr 0.00 in0.0 mm
12:17 AM 71.1°F21.7°C 71.1°F21.7°C 100% - N16091.8 kmh N -- 29.98 in1015.2 mb 0.00 in0.0 mm 0.00 in/hr0.0 mm/hr 0.00 in0.0 mm
12:22 AM 71.1°F21.7°C 71.1°F21.7°C 100% - N16091.8 kmh N -- 29.98 in1015.2 mb 0.00 in0.0 mm 0.00 in/hr0.0 mm/hr 0.00 in0.0 mm
12:27 AM 71.1°F21.7°C 71.1°F21.7°C 100% - N16091.8 kmh N -- 29.98 in1015.2 mb 0.00 in0.0 mm 0.00 in/hr0.0 mm/hr 0.00 in0.0 mm
12:33 AM 70.9°F21.6°C 70.9°F21.6°C 100% - N16091.8 kmh N -- 29.98 in1015.2 mb 0.00 in0.0 mm 0.00 in/hr0.0 mm/hr 0.00 in0.0 mm
12:38 AM 70.7°F21.5°C 70.7°F21.5°C 100% - N16091.8 kmh N -- 29.98 in1015.2 mb 0.00 in0.0 mm 0.00 in/hr0.0 mm/hr 0.00 in0.0 mm
12:44 AM 70.5°F21.4°C 70.5°F21.4°C 100% - N16091.8 kmh N -- 29.98 in1015.2 mb 0.00 in0.0 mm 0.00 in/hr0.0 mm/hr 0.00 in0.0 mm
12:49 AM 70.5°F21.4°C 70.5°F21.4°C 100% - N16091.8 kmh N -- 29.98 in1015.2 mb 0.00 in0.0 mm 0.00 in/hr0.0 mm/hr 0.00 in0.0 mm
12:54 AM 70.3°F21.3°C 70.3°F21.3°C 100% - N16091.8 kmh N -- 29.98 in1015.2 mb 0.00 in0.0 mm 0.00 in/hr0.0 mm/hr 0.00 in0.0 mm
12:59 AM 70.3°F21.3°C 70.3°F21.3°C 100% - N16091.8 kmh N -- 29.98 in1015.2 mb 0.00 in0.0 mm 0.00 in/hr0.0 mm/hr 0.00 in0.0 mm
01:07 AM 70.2°F21.2°C 70.2°F21.2°C 100% - N16091.8 kmh N -- 29.98 in1015.2 mb 0.00 in0.0 mm 0.00 in/hr0.0 mm/hr 0.00 in0.0 mm
01:12 AM 70.2°F21.2°C 70.2°F21.2°C 100% - N16091.8 kmh N -- 29.98 in1015.2 mb 0.00 in0.0 mm 0.00 in/hr0.0 mm/hr 0.00 in0.0 mm
01:17 AM 70.0°F21.1°C 70.0°F21.1°C 100% - N16091.8 kmh N -- 29.98 in1015.2 mb 0.00 in0.0 mm 0.00 in/hr0.0 mm/hr 0.00 in0.0 mm
01:22 AM 70.0°F21.1°C 70.0°F21.1°C 100% - N16091.8 kmh N -- 29.98 in1015.2 mb 0.00 in0.0 mm 0.00 in/hr0.0 mm/hr 0.00 in0.0 mm
01:27 AM 70.2°F21.2°C 70.2°F21.2°C 100% - N16091.8 kmh N -- 29.98 in1015.2 mb 0.00 in0.0 mm 0.00 in/hr0.0 mm/hr 0.00 in0.0 mm
01:32 AM 70.2°F21.2°C 70.2°F21.2°C 100% - N16091.8 kmh N -- 29.98 in1015.2 mb 0.00 in0.0 mm 0.00 in/hr0.0 mm/hr 0.00 in0.0 mm
01:37 AM 70.2°F21.2°C 70.2°F21.2°C 100% - N16091.8 kmh N -- 29.98 in1015.2 mb 0.00 in0.0 mm 0.00 in/hr0.0 mm/hr 0.00 in0.0 mm
01:42 AM 70.3°F21.3°C 70.3°F21.3°C 100% - N16091.8 kmh N -- 29.98 in1015.2 mb 0.00 in0.0 mm 0.00 in/hr0.0 mm/hr 0.00 in0.0 mm
01:47 AM 70.3°F21.3°C 70.3°F21.3°C 100% - N16091.8 kmh N -- 29.98 in1015.2 mb 0.00 in0.0 mm 0.00 in/hr0.0 mm/hr 0.00 in0.0 mm
01:52 AM 70.5°F21.4°C 70.5°F21.4°C 100% - N16091.8 kmh N -- 29.98 in1015.2 mb 0.00 in0.0 mm 0.00 in/hr0.0 mm/hr 0.00 in0.0 mm
01:57 AM 70.5°F21.4°C 70.5°F21.4°C 100% - N16091.8 kmh N -- 29.95 in1014.2 mb 0.00 in0.0 mm 0.00 in/hr0.0 mm/hr 0.00 in0.0 mm
02:02 AM 70.3°F21.3°C 70.3°F21.3°C 100% - N16091.8 kmh N -- 29.95 in1014.2 mb 0.00 in0.0 mm 0.00 in/hr0.0 mm/hr 0.00 in0.0 mm
02:07 AM 70.3°F21.3°C 70.3°F21.3°C 100% - N16091.8 kmh N -- 29.95 in1014.2 mb 0.00 in0.0 mm 0.00 in/hr0.0 mm/hr 0.00 in0.0 mm
02:12 AM 70.3°F21.3°C 70.3°F21.3°C 100% - N16091.8 kmh N -- 29.95 in1014.2 mb 0.00 in0.0 mm 0.00 in/hr0.0 mm/hr 0.00 in0.0 mm
02:17 AM 70.2°F21.2°C 70.2°F21.2°C 100% - N16091.8 kmh N -- 29.95 in1014.2 mb 0.00 in0.0 mm 0.00 in/hr0.0 mm/hr 0.00 in0.0 mm
02:23 AM 70.2°F21.2°C 70.2°F21.2°C 100% - N16091.8 kmh N -- 29.95 in1014.2 mb 0.00 in0.0 mm 0.00 in/hr0.0 mm/hr 0.00 in0.0 mm
02:28 AM 70.2°F21.2°C 70.2°F21.2°C 100% - N16091.8 kmh N -- 29.95 in1014.2 mb 0.00 in0.0 mm 0.00 in/hr0.0 mm/hr 0.00 in0.0 mm
02:33 AM 70.2°F21.2°C 70.2°F21.2°C 100% - N16091.8 kmh N -- 29.95 in1014.2 mb 0.00 in0.0 mm 0.00 in/hr0.0 mm/hr 0.00 in0.0 mm
02:38 AM 70.2°F21.2°C 70.2°F21.2°C 100% - N16091.8 kmh N -- 29.95 in1014.2 mb 0.00 in0.0 mm 0.00 in/hr0.0 mm/hr 0.00 in0.0 mm
02:43 AM 70.2°F21.2°C 70.2°F21.2°C 100% - N16091.8 kmh N -- 29.95 in1014.2 mb 0.00 in0.0 mm 0.00 in/hr0.0 mm/hr 0.00 in0.0 mm
02:48 AM 70.2°F21.2°C 70.2°F21.2°C 100% - N16091.8 kmh N -- 29.95 in1014.2 mb 0.00 in0.0 mm 0.00 in/hr0.0 mm/hr 0.00 in0.0 mm
02:53 AM 70.2°F21.2°C 70.2°F21.2°C 100% - N16091.8 kmh N -- 29.95 in1014.2 mb 0.00 in0.0 mm 0.00 in/hr0.0 mm/hr 0.00 in0.0 mm
02:58 AM 70.2°F21.2°C 70.2°F21.2°C 100% - N16091.8 kmh N -- 29.95 in1014.2 mb 0.00 in0.0 mm 0.00 in/hr0.0 mm/hr 0.00 in0.0 mm
03:03 AM 70.2°F21.2°C 70.2°F21.2°C 100% - N16091.8 kmh N -- 29.95 in1014.2 mb 0.00 in0.0 mm 0.00 in/hr0.0 mm/hr 0.00 in0.0 mm
03:07 AM 70.2°F21.2°C 70.2°F21.2°C 100% - N16091.8 kmh N -- 29.95 in1014.2 mb 0.00 in0.0 mm 0.00 in/hr0.0 mm/hr 0.00 in0.0 mm
03:13 AM 70.2°F21.2°C 70.2°F21.2°C 100% - N16091.8 kmh N -- 29.92 in1013.2 mb 0.00 in0.0 mm 0.00 in/hr0.0 mm/hr 0.00 in0.0 mm
03:18 AM 70.2°F21.2°C 70.2°F21.2°C 100% - N16091.8 kmh N -- 29.92 in1013.2 mb 0.00 in0.0 mm 0.00 in/hr0.0 mm/hr 0.00 in0.0 mm
03:23 AM 70.2°F21.2°C 70.2°F21.2°C 100% - N16091.8 kmh N -- 29.92 in1013.2 mb 0.00 in0.0 mm 0.00 in/hr0.0 mm/hr 0.00 in0.0 mm
03:28 AM 70.2°F21.2°C 70.2°F21.2°C 100% - N16091.8 kmh N -- 29.92 in1013.2 mb 0.00 in0.0 mm 0.00 in/hr0.0 mm/hr 0.00 in0.0 mm
03:33 AM 70.2°F21.2°C 70.2°F21.2°C 100% - N16091.8 kmh N -- 29.92 in1013.2 mb 0.00 in0.0 mm 0.00 in/hr0.0 mm/hr 0.00 in0.0 mm
03:38 AM 70.0°F21.1°C 70.0°F21.1°C 100% - N16091.8 kmh N -- 29.92 in1013.2 mb 0.00 in0.0 mm 0.00 in/hr0.0 mm/hr 0.00 in0.0 mm
03:43 AM 70.0°F21.1°C 70.0°F21.1°C 100% - N16091.8 kmh N -- 29.92 in1013.2 mb 0.00 in0.0 mm 0.00 in/hr0.0 mm/hr 0.00 in0.0 mm
03:47 AM 69.8°F21.0°C 69.8°F21.0°C 100% - N16091.8 kmh N -- 29.92 in1013.2 mb 0.00 in0.0 mm 0.00 in/hr0.0 mm/hr 0.00 in0.0 mm
03:53 AM 69.8°F21.0°C 69.8°F21.0°C 100% - N16091.8 kmh N -- 29.92 in1013.2 mb 0.00 in0.0 mm 0.00 in/hr0.0 mm/hr 0.00 in0.0 mm
03:58 AM 69.8°F21.0°C 69.8°F21.0°C 100% - N16091.8 kmh N -- 29.92 in1013.2 mb 0.00 in0.0 mm 0.00 in/hr0.0 mm/hr 0.00 in0.0 mm
04:03 AM 70.2°F21.2°C 70.2°F21.2°C 100% - N16091.8 kmh N -- 29.92 in1013.2 mb 0.00 in0.0 mm 0.00 in/hr0.0 mm/hr 0.00 in0.0 mm
04:09 AM 70.7°F21.5°C 70.7°F21.5°C 100% - N16091.8 kmh N -- 29.92 in1013.2 mb 0.00 in0.0 mm 0.00 in/hr0.0 mm/hr 0.00 in0.0 mm
04:14 AM 70.9°F21.6°C 70.9°F21.6°C 100% - N16091.8 kmh N -- 29.95 in1014.2 mb 0.00 in0.0 mm 0.00 in/hr0.0 mm/hr 0.00 in0.0 mm
04:19 AM 71.2°F21.8°C 71.2°F21.8°C 100% - N16091.8 kmh N -- 29.95 in1014.2 mb 0.00 in0.0 mm 0.00 in/hr0.0 mm/hr 0.00 in0.0 mm
04:24 AM 71.4°F21.9°C 71.4°F21.9°C 100% - N16091.8 kmh N -- 29.95 in1014.2 mb 0.00 in0.0 mm 0.00 in/hr0.0 mm/hr 0.00 in0.0 mm
04:29 AM 71.2°F21.8°C 71.2°F21.8°C 100% - N16091.8 kmh N -- 29.92 in1013.2 mb 0.00 in0.0 mm 0.00 in/hr0.0 mm/hr 0.00 in0.0 mm
04:34 AM 71.1°F21.7°C 71.1°F21.7°C 100% - N16091.8 kmh N -- 29.92 in1013.2 mb 0.00 in0.0 mm 0.00 in/hr0.0 mm/hr 0.00 in0.0 mm
04:39 AM 71.1°F21.7°C 71.1°F21.7°C 100% - N16091.8 kmh N -- 29.92 in1013.2 mb 0.00 in0.0 mm 0.00 in/hr0.0 mm/hr 0.00 in0.0 mm
04:44 AM 70.7°F21.5°C 70.7°F21.5°C 100% - N16091.8 kmh N -- 29.92 in1013.2 mb 0.00 in0.0 mm 0.00 in/hr0.0 mm/hr 0.00 in0.0 mm
04:49 AM 70.5°F21.4°C 70.5°F21.4°C 100% - N16091.8 kmh N -- 29.92 in1013.2 mb 0.00 in0.0 mm 0.00 in/hr0.0 mm/hr 0.00 in0.0 mm
04:54 AM 70.3°F21.3°C 70.3°F21.3°C 100% - N16091.8 kmh N -- 29.92 in1013.2 mb 0.00 in0.0 mm 0.00 in/hr0.0 mm/hr 0.00 in0.0 mm
04:59 AM 70.3°F21.3°C 70.3°F21.3°C 100% - N16091.8 kmh N -- 29.92 in1013.2 mb 0.00 in0.0 mm 0.00 in/hr0.0 mm/hr 0.00 in0.0 mm
05:04 AM 70.5°F21.4°C 70.5°F21.4°C 100% - N16091.8 kmh N -- 29.92 in1013.2 mb 0.00 in0.0 mm 0.00 in/hr0.0 mm/hr 0.00 in0.0 mm
05:09 AM 70.9°F21.6°C 70.9°F21.6°C 100% - N16091.8 kmh N -- 29.92 in1013.2 mb 0.00 in0.0 mm 0.00 in/hr0.0 mm/hr 0.00 in0.0 mm
05:14 AM 70.9°F21.6°C 70.9°F21.6°C 100% - N16091.8 kmh N -- 29.92 in1013.2 mb 0.00 in0.0 mm 0.00 in/hr0.0 mm/hr 0.00 in0.0 mm
05:19 AM 70.9°F21.6°C 70.9°F21.6°C 100% - N16091.8 kmh N -- 29.92 in1013.2 mb 0.00 in0.0 mm 0.00 in/hr0.0 mm/hr 0.00 in0.0 mm
05:24 AM 70.7°F21.5°C 70.7°F21.5°C 100% - N16091.8 kmh N -- 29.92 in1013.2 mb 0.00 in0.0 mm 0.00 in/hr0.0 mm/hr 0.00 in0.0 mm
05:29 AM 70.7°F21.5°C 70.7°F21.5°C 100% - N16091.8 kmh N -- 29.92 in1013.2 mb 0.00 in0.0 mm 0.00 in/hr0.0 mm/hr 0.00 in0.0 mm
05:34 AM 70.5°F21.4°C 70.5°F21.4°C 100% - N16091.8 kmh N -- 29.92 in1013.2 mb 0.00 in0.0 mm 0.00 in/hr0.0 mm/hr 0.00 in0.0 mm
05:40 AM 70.3°F21.3°C 70.3°F21.3°C 100% - N16091.8 kmh N -- 29.92 in1013.2 mb 0.00 in0.0 mm 0.00 in/hr0.0 mm/hr 0.00 in0.0 mm
05:45 AM 70.3°F21.3°C 70.3°F21.3°C 100% - N16091.8 kmh N -- 29.92 in1013.2 mb 0.00 in0.0 mm 0.00 in/hr0.0 mm/hr 0.00 in0.0 mm
05:50 AM 70.3°F21.3°C 70.3°F21.3°C 100% - N16091.8 kmh N -- 29.92 in1013.2 mb 0.00 in0.0 mm 0.00 in/hr0.0 mm/hr 0.00 in0.0 mm
05:56 AM 70.2°F21.2°C 70.2°F21.2°C 100% - N16091.8 kmh N -- 29.92 in1013.2 mb 0.00 in0.0 mm 0.00 in/hr0.0 mm/hr 0.00 in0.0 mm
06:02 AM 70.2°F21.2°C 70.2°F21.2°C 100% - N16091.8 kmh N -- 29.95 in1014.2 mb 0.00 in0.0 mm 0.00 in/hr0.0 mm/hr 0.00 in0.0 mm
06:07 AM 70.2°F21.2°C 70.2°F21.2°C 100% - N16091.8 kmh N -- 29.95 in1014.2 mb 0.00 in0.0 mm 0.00 in/hr0.0 mm/hr 0.00 in0.0 mm
06:12 AM 70.2°F21.2°C 70.2°F21.2°C 100% - N16091.8 kmh N -- 29.95 in1014.2 mb 0.00 in0.0 mm 0.00 in/hr0.0 mm/hr 0.00 in0.0 mm
06:17 AM 70.2°F21.2°C 70.2°F21.2°C 100% - N16091.8 kmh N -- 29.95 in1014.2 mb 0.00 in0.0 mm 0.00 in/hr0.0 mm/hr 0.00 in0.0 mm
06:22 AM 70.2°F21.2°C 70.2°F21.2°C 100% - N16091.8 kmh N -- 29.95 in1014.2 mb 0.00 in0.0 mm 0.00 in/hr0.0 mm/hr 0.00 in0.0 mm
06:27 AM 70.0°F21.1°C 70.0°F21.1°C 100% - N16091.8 kmh N -- 29.95 in1014.2 mb 0.00 in0.0 mm 0.00 in/hr0.0 mm/hr 0.00 in0.0 mm
06:32 AM 69.8°F21.0°C 69.8°F21.0°C 100% - N16091.8 kmh N -- 29.95 in1014.2 mb 0.00 in0.0 mm 0.00 in/hr0.0 mm/hr 0.00 in0.0 mm
06:36 AM 69.6°F20.9°C 69.6°F20.9°C 100% - N16091.8 kmh N -- 29.95 in1014.2 mb 0.00 in0.0 mm 0.00 in/hr0.0 mm/hr 0.00 in0.0 mm
06:42 AM 69.6°F20.9°C 69.6°F20.9°C 100% - N16091.8 kmh N -- 29.95 in1014.2 mb 0.00 in0.0 mm 0.00 in/hr0.0 mm/hr 0.00 in0.0 mm
06:47 AM 69.6°F20.9°C 69.6°F20.9°C 100% - N16091.8 kmh N -- 29.95 in1014.2 mb 0.00 in0.0 mm 0.00 in/hr0.0 mm/hr 0.00 in0.0 mm
06:53 AM 69.6°F20.9°C 69.6°F20.9°C 100% - N16091.8 kmh N -- 29.95 in1014.2 mb 0.00 in0.0 mm 0.00 in/hr0.0 mm/hr 0.00 in0.0 mm
06:58 AM 69.6°F20.9°C 69.6°F20.9°C 100% - N16091.8 kmh N -- 29.95 in1014.2 mb 0.00 in0.0 mm 0.00 in/hr0.0 mm/hr 0.00 in0.0 mm
07:03 AM 69.6°F20.9°C 69.6°F20.9°C 100% - N16091.8 kmh N -- 29.95 in1014.2 mb 0.00 in0.0 mm 0.00 in/hr0.0 mm/hr 0.00 in0.0 mm
07:08 AM 69.4°F20.8°C 69.4°F20.8°C 100% - N16091.8 kmh N -- 29.95 in1014.2 mb 0.00 in0.0 mm 0.00 in/hr0.0 mm/hr 0.00 in0.0 mm
07:13 AM 69.4°F20.8°C 69.4°F20.8°C 100% - N16091.8 kmh N -- 29.92 in1013.2 mb 0.00 in0.0 mm 0.00 in/hr0.0 mm/hr 0.00 in0.0 mm
07:18 AM 69.4°F20.8°C 69.4°F20.8°C 100% - N16091.8 kmh N -- 29.92 in1013.2 mb 0.00 in0.0 mm 0.00 in/hr0.0 mm/hr 0.00 in0.0 mm
07:23 AM 69.4°F20.8°C 69.4°F20.8°C 100% - N16091.8 kmh N -- 29.92 in1013.2 mb 0.00 in0.0 mm 0.00 in/hr0.0 mm/hr 0.00 in0.0 mm
07:28 AM 69.6°F20.9°C 69.6°F20.9°C 100% - N16091.8 kmh N -- 29.92 in1013.2 mb 0.00 in0.0 mm 0.00 in/hr0.0 mm/hr 0.00 in0.0 mm
07:33 AM 69.8°F21.0°C 69.8°F21.0°C 100% - N16091.8 kmh N -- 29.92 in1013.2 mb 0.00 in0.0 mm 0.00 in/hr0.0 mm/hr 0.00 in0.0 mm
07:38 AM 70.0°F21.1°C 70.0°F21.1°C 100% - N16091.8 kmh N -- 29.92 in1013.2 mb 0.00 in0.0 mm 0.00 in/hr0.0 mm/hr 0.00 in0.0 mm
07:45 AM 70.5°F21.4°C 70.5°F21.4°C 100% - N16091.8 kmh N -- 29.95 in1014.2 mb 0.00 in0.0 mm 0.00 in/hr0.0 mm/hr 0.00 in0.0 mm
07:50 AM 70.9°F21.6°C 70.9°F21.6°C 100% - N16091.8 kmh N -- 29.95 in1014.2 mb 0.00 in0.0 mm 0.00 in/hr0.0 mm/hr 0.00 in0.0 mm
07:55 AM 71.1°F21.7°C 71.1°F21.7°C 100% - N16091.8 kmh N -- 29.95 in1014.2 mb 0.00 in0.0 mm 0.00 in/hr0.0 mm/hr 0.00 in0.0 mm
08:00 AM 71.2°F21.8°C 71.2°F21.8°C 100% - N16091.8 kmh N -- 29.98 in1015.2 mb 0.00 in0.0 mm 0.00 in/hr0.0 mm/hr 0.00 in0.0 mm
08:08 AM 71.1°F21.7°C 71.1°F21.7°C 100% - N16091.8 kmh N -- 29.98 in1015.2 mb 0.00 in0.0 mm 0.00 in/hr0.0 mm/hr 0.00 in0.0 mm
08:12 AM 70.9°F21.6°C 70.9°F21.6°C 100% - N16091.8 kmh N -- 29.95 in1014.2 mb 0.00 in0.0 mm 0.00 in/hr0.0 mm/hr 0.00 in0.0 mm
08:18 AM 70.7°F21.5°C 70.7°F21.5°C 100% - N16091.8 kmh N -- 29.95 in1014.2 mb 0.00 in0.0 mm 0.00 in/hr0.0 mm/hr 0.00 in0.0 mm
08:23 AM 70.9°F21.6°C 70.9°F21.6°C 100% - N16091.8 kmh N -- 29.95 in1014.2 mb 0.00 in0.0 mm 0.00 in/hr0.0 mm/hr 0.00 in0.0 mm
08:28 AM 70.7°F21.5°C 70.7°F21.5°C 100% - N16091.8 kmh N -- 29.95 in1014.2 mb 0.04 in1.0 mm 0.48 in/hr12.2 mm/hr 0.04 in1.0 mm
08:33 AM 70.7°F21.5°C 70.7°F21.5°C 100% - N16091.8 kmh N -- 29.95 in1014.2 mb 0.04 in1.0 mm 0.00 in/hr0.0 mm/hr 0.04 in1.0 mm
08:38 AM 70.7°F21.5°C 70.7°F21.5°C 100% - N16091.8 kmh N -- 29.95 in1014.2 mb 0.04 in1.0 mm 0.00 in/hr0.0 mm/hr 0.04 in1.0 mm
08:43 AM 70.7°F21.5°C 70.7°F21.5°C 100% - N16091.8 kmh N -- 29.95 in1014.2 mb 0.04 in1.0 mm 0.00 in/hr0.0 mm/hr 0.04 in1.0 mm
08:50 AM 70.7°F21.5°C 70.7°F21.5°C 100% - N16091.8 kmh N -- 29.95 in1014.2 mb 0.04 in1.0 mm 0.00 in/hr0.0 mm/hr 0.04 in1.0 mm
08:55 AM 70.9°F21.6°C 70.9°F21.6°C 100% - N16091.8 kmh N -- 29.95 in1014.2 mb 0.04 in1.0 mm 0.00 in/hr0.0 mm/hr 0.04 in1.0 mm
09:01 AM 70.9°F21.6°C 70.9°F21.6°C 100% - N16091.8 kmh N -- 29.95 in1014.2 mb 0.04 in1.0 mm 0.00 in/hr0.0 mm/hr 0.04 in1.0 mm
09:06 AM 71.1°F21.7°C 71.1°F21.7°C 100% - N16091.8 kmh N -- 29.95 in1014.2 mb 0.04 in1.0 mm 0.00 in/hr0.0 mm/hr 0.04 in1.0 mm
09:11 AM 71.1°F21.7°C 71.1°F21.7°C 100% - N16091.8 kmh N -- 29.95 in1014.2 mb 0.04 in1.0 mm 0.00 in/hr0.0 mm/hr 0.04 in1.0 mm
09:16 AM 71.4°F21.9°C 71.4°F21.9°C 100% - N16091.8 kmh N -- 29.95 in1014.2 mb 0.04 in1.0 mm 0.00 in/hr0.0 mm/hr 0.04 in1.0 mm
09:26 AM 71.6°F22.0°C 71.6°F22.0°C 100% - N16091.8 kmh N -- 29.95 in1014.2 mb 0.04 in1.0 mm 0.00 in/hr0.0 mm/hr 0.04 in1.0 mm
09:31 AM 71.8°F22.1°C 71.8°F22.1°C 100% - N16091.8 kmh N -- 29.95 in1014.2 mb 0.00 in0.0 mm 0.00 in/hr0.0 mm/hr 0.04 in1.0 mm
09:36 AM 71.8°F22.1°C 71.8°F22.1°C 100% - N16091.8 kmh N -- 29.95 in1014.2 mb 0.00 in0.0 mm 0.00 in/hr0.0 mm/hr 0.04 in1.0 mm
09:41 AM 72.0°F22.2°C 72.0°F22.2°C 100% - N16091.8 kmh N -- 29.95 in1014.2 mb 0.00 in0.0 mm 0.00 in/hr0.0 mm/hr 0.04 in1.0 mm
09:46 AM 71.8°F22.1°C 71.8°F22.1°C 100% - N16091.8 kmh N -- 29.95 in1014.2 mb 0.00 in0.0 mm 0.00 in/hr0.0 mm/hr 0.04 in1.0 mm
09:51 AM 71.8°F22.1°C 71.8°F22.1°C 100% - N16091.8 kmh N -- 29.95 in1014.2 mb 0.00 in0.0 mm 0.00 in/hr0.0 mm/hr 0.04 in1.0 mm
09:56 AM 71.8°F22.1°C 71.8°F22.1°C 100% - N16091.8 kmh N -- 29.95 in1014.2 mb 0.00 in0.0 mm 0.00 in/hr0.0 mm/hr 0.04 in1.0 mm
10:01 AM 71.8°F22.1°C 71.8°F22.1°C 100% - N16091.8 kmh N -- 29.95 in1014.2 mb 0.00 in0.0 mm 0.00 in/hr0.0 mm/hr 0.04 in1.0 mm
10:06 AM 72.0°F22.2°C 72.0°F22.2°C 100% - N16091.8 kmh N -- 29.95 in1014.2 mb 0.00 in0.0 mm 0.00 in/hr0.0 mm/hr 0.04 in1.0 mm
10:10 AM 72.0°F22.2°C 72.0°F22.2°C 100% - N16091.8 kmh N -- 29.95 in1014.2 mb 0.00 in0.0 mm 0.00 in/hr0.0 mm/hr 0.04 in1.0 mm
10:16 AM 72.0°F22.2°C 72.0°F22.2°C 100% - N16091.8 kmh N -- 29.95 in1014.2 mb 0.00 in0.0 mm 0.00 in/hr0.0 mm/hr 0.04 in1.0 mm
10:21 AM 72.1°F22.3°C 72.1°F22.3°C 100% - N16091.8 kmh N -- 29.95 in1014.2 mb 0.00 in0.0 mm 0.00 in/hr0.0 mm/hr 0.04 in1.0 mm
10:26 AM 72.1°F22.3°C 72.1°F22.3°C 100% - N16091.8 kmh N -- 29.98 in1015.2 mb 0.00 in0.0 mm 0.00 in/hr0.0 mm/hr 0.04 in1.0 mm
10:31 AM 72.3°F22.4°C 72.3°F22.4°C 100% - N16091.8 kmh N -- 29.98 in1015.2 mb 0.00 in0.0 mm 0.00 in/hr0.0 mm/hr 0.04 in1.0 mm
10:38 AM 72.5°F22.5°C 72.5°F22.5°C 100% - N16091.8 kmh N -- 29.98 in1015.2 mb 0.00 in0.0 mm 0.00 in/hr0.0 mm/hr 0.04 in1.0 mm
10:43 AM 72.7°F22.6°C 72.7°F22.6°C 100% - N16091.8 kmh N -- 29.95 in1014.2 mb 0.00 in0.0 mm 0.00 in/hr0.0 mm/hr 0.04 in1.0 mm
10:48 AM 72.9°F22.7°C 72.9°F22.7°C 100% - N16091.8 kmh N -- 29.95 in1014.2 mb 0.00 in0.0 mm 0.00 in/hr0.0 mm/hr 0.04 in1.0 mm
10:54 AM 72.9°F22.7°C 72.9°F22.7°C 100% - N16091.8 kmh N -- 29.95 in1014.2 mb 0.00 in0.0 mm 0.00 in/hr0.0 mm/hr 0.04 in1.0 mm
10:59 AM 72.9°F22.7°C 72.9°F22.7°C 100% - N16091.8 kmh N -- 29.98 in1015.2 mb 0.00 in0.0 mm 0.00 in/hr0.0 mm/hr 0.04 in1.0 mm
11:03 AM 73.0°F22.8°C 73.0°F22.8°C 100% - N16091.8 kmh N -- 29.98 in1015.2 mb 0.00 in0.0 mm 0.00 in/hr0.0 mm/hr 0.04 in1.0 mm
11:09 AM 73.4°F23.0°C 73.4°F23.0°C 100% - N16091.8 kmh N -- 29.98 in1015.2 mb 0.00 in0.0 mm 0.00 in/hr0.0 mm/hr 0.04 in1.0 mm
11:14 AM 73.8°F23.2°C 73.8°F23.2°C 100% - N16091.8 kmh N -- 30.01 in1016.3 mb 0.00 in0.0 mm 0.00 in/hr0.0 mm/hr 0.04 in1.0 mm
11:19 AM 74.3°F23.5°C 74.3°F23.5°C 100% - N16091.8 kmh N -- 30.01 in1016.3 mb 0.00 in0.0 mm 0.00 in/hr0.0 mm/hr 0.04 in1.0 mm
11:24 AM 74.7°F23.7°C 74.7°F23.7°C 100% - N16091.8 kmh N -- 30.01 in1016.3 mb 0.00 in0.0 mm 0.00 in/hr0.0 mm/hr 0.04 in1.0 mm
11:29 AM 75.0°F23.9°C 75.0°F23.9°C 100% - N16091.8 kmh N -- 30.01 in1016.3 mb 0.00 in0.0 mm 0.00 in/hr0.0 mm/hr 0.04 in1.0 mm
11:34 AM 75.2°F24.0°C 75.2°F24.0°C 100% - N16091.8 kmh N -- 30.01 in1016.3 mb 0.00 in0.0 mm 0.00 in/hr0.0 mm/hr 0.04 in1.0 mm
11:40 AM 75.7°F24.3°C 75.7°F24.3°C 100% - N16091.8 kmh N -- 30.01 in1016.3 mb 0.00 in0.0 mm 0.00 in/hr0.0 mm/hr 0.04 in1.0 mm
11:44 AM 76.1°F24.5°C 76.1°F24.5°C 100% - N16091.8 kmh N -- 29.98 in1015.2 mb 0.00 in0.0 mm 0.00 in/hr0.0 mm/hr 0.04 in1.0 mm
11:50 AM 76.5°F24.7°C 76.5°F24.7°C 100% - N16091.8 kmh N -- 29.98 in1015.2 mb 0.00 in0.0 mm 0.00 in/hr0.0 mm/hr 0.04 in1.0 mm
11:55 AM 77.4°F25.2°C 77.4°F25.2°C 100% - N16091.8 kmh N -- 29.98 in1015.2 mb 0.00 in0.0 mm 0.00 in/hr0.0 mm/hr 0.04 in1.0 mm
12:01 PM 78.4°F25.8°C 78.4°F25.8°C 100% - N16091.8 kmh N -- 29.98 in1015.2 mb 0.00 in0.0 mm 0.00 in/hr0.0 mm/hr 0.04 in1.0 mm
12:06 PM 79.0°F26.1°C 79.0°F26.1°C 100% - N16091.8 kmh N -- 29.98 in1015.2 mb 0.00 in0.0 mm 0.00 in/hr0.0 mm/hr 0.04 in1.0 mm
12:11 PM 79.7°F26.5°C 79.7°F26.5°C 100% - N16091.8 kmh N -- 29.98 in1015.2 mb 0.00 in0.0 mm 0.00 in/hr0.0 mm/hr 0.04 in1.0 mm
12:16 PM 80.1°F26.7°C 80.1°F26.7°C 100% - N16091.8 kmh N -- 29.98 in1015.2 mb 0.00 in0.0 mm 0.00 in/hr0.0 mm/hr 0.04 in1.0 mm
12:21 PM 80.2°F26.8°C 77.9°F25.5°C 93% - N16091.8 kmh N -- 29.98 in1015.2 mb 0.00 in0.0 mm 0.00 in/hr0.0 mm/hr 0.04 in1.0 mm
12:26 PM 80.6°F27.0°C 80.6°F27.0°C 100% - N16091.8 kmh N -- 29.98 in1015.2 mb 0.00 in0.0 mm 0.00 in/hr0.0 mm/hr 0.04 in1.0 mm
12:31 PM 81.0°F27.2°C 80.3°F26.8°C 98% - N16091.8 kmh N -- 29.98 in1015.2 mb 0.00 in0.0 mm 0.00 in/hr0.0 mm/hr 0.04 in1.0 mm
12:36 PM 81.1°F27.3°C 78.8°F26.0°C 93% - N16091.8 kmh N -- 29.98 in1015.2 mb 0.00 in0.0 mm 0.00 in/hr0.0 mm/hr 0.04 in1.0 mm
12:41 PM 81.9°F27.7°C 76.3°F24.6°C 83% - N16091.8 kmh N -- 29.95 in1014.2 mb 0.00 in0.0 mm 0.00 in/hr0.0 mm/hr 0.04 in1.0 mm
12:46 PM 82.8°F28.2°C 77.2°F25.1°C 83% - N16091.8 kmh N -- 29.95 in1014.2 mb 0.00 in0.0 mm 0.00 in/hr0.0 mm/hr 0.04 in1.0 mm
12:52 PM 83.1°F28.4°C 76.6°F24.8°C 81% - N16091.8 kmh N -- 29.95 in1014.2 mb 0.00 in0.0 mm 0.00 in/hr0.0 mm/hr 0.04 in1.0 mm
12:57 PM 83.1°F28.4°C 74.8°F23.8°C 76% - N16091.8 kmh N -- 29.98 in1015.2 mb 0.00 in0.0 mm 0.00 in/hr0.0 mm/hr 0.04 in1.0 mm
01:03 PM 83.3°F28.5°C 73.0°F22.8°C 71% - N16091.8 kmh N -- 29.98 in1015.2 mb 0.00 in0.0 mm 0.00 in/hr0.0 mm/hr 0.04 in1.0 mm
01:08 PM 83.3°F28.5°C 74.9°F23.8°C 76% - N16091.8 kmh N -- 29.98 in1015.2 mb 0.00 in0.0 mm 0.00 in/hr0.0 mm/hr 0.04 in1.0 mm
01:14 PM 82.9°F28.3°C 71.6°F22.0°C 68% - N16091.8 kmh N -- 29.95 in1014.2 mb 0.00 in0.0 mm 0.00 in/hr0.0 mm/hr 0.04 in1.0 mm
01:19 PM 83.5°F28.6°C 75.1°F23.9°C 76% - N16091.8 kmh N -- 29.95 in1014.2 mb 0.00 in0.0 mm 0.00 in/hr0.0 mm/hr 0.04 in1.0 mm
01:25 PM 84.2°F29.0°C 72.8°F22.7°C 68% - N16091.8 kmh N -- 29.95 in1014.2 mb 0.00 in0.0 mm 0.00 in/hr0.0 mm/hr 0.04 in1.0 mm
01:30 PM 84.7°F29.3°C 69.9°F21.1°C 61% - N16091.8 kmh N -- 29.95 in1014.2 mb 0.00 in0.0 mm 0.00 in/hr0.0 mm/hr 0.04 in1.0 mm
01:35 PM 84.7°F29.3°C 69.9°F21.1°C 61% - N16091.8 kmh N -- 29.95 in1014.2 mb 0.00 in0.0 mm 0.00 in/hr0.0 mm/hr 0.04 in1.0 mm
01:40 PM 84.7°F29.3°C 67.4°F19.7°C 56% - N16091.8 kmh N -- 29.95 in1014.2 mb 0.00 in0.0 mm 0.00 in/hr0.0 mm/hr 0.04 in1.0 mm
01:45 PM 84.4°F29.1°C 69.6°F20.9°C 61% - N16091.8 kmh N -- 29.95 in1014.2 mb 0.00 in0.0 mm 0.00 in/hr0.0 mm/hr 0.04 in1.0 mm
01:50 PM 84.0°F28.9°C 69.2°F20.7°C 61% - N16091.8 kmh N -- 29.95 in1014.2 mb 0.00 in0.0 mm 0.00 in/hr0.0 mm/hr 0.04 in1.0 mm
01:55 PM 83.8°F28.8°C 70.2°F21.2°C 63% - N16091.8 kmh N -- 29.95 in1014.2 mb 0.00 in0.0 mm 0.00 in/hr0.0 mm/hr 0.04 in1.0 mm
02:00 PM 84.0°F28.9°C 72.6°F22.6°C 68% - N16091.8 kmh N -- 29.95 in1014.2 mb 0.00 in0.0 mm 0.00 in/hr0.0 mm/hr 0.04 in1.0 mm
02:07 PM 84.6°F29.2°C 73.2°F22.9°C 68% - N16091.8 kmh N -- 29.95 in1014.2 mb 0.00 in0.0 mm 0.00 in/hr0.0 mm/hr 0.04 in1.0 mm
02:12 PM 85.1°F29.5°C 71.5°F21.9°C 63% - N16091.8 kmh N -- 29.95 in1014.2 mb 0.00 in0.0 mm 0.00 in/hr0.0 mm/hr 0.04 in1.0 mm
02:17 PM 85.5°F29.7°C 70.7°F21.5°C 61% - N16091.8 kmh N -- 29.95 in1014.2 mb 0.00 in0.0 mm 0.00 in/hr0.0 mm/hr 0.04 in1.0 mm
02:22 PM 85.8°F29.9°C 70.9°F21.6°C 61% - N16091.8 kmh N -- 29.95 in1014.2 mb 0.00 in0.0 mm 0.00 in/hr0.0 mm/hr 0.04 in1.0 mm
02:27 PM 86.0°F30.0°C 67.3°F19.6°C 53% - N16091.8 kmh N -- 29.95 in1014.2 mb 0.00 in0.0 mm 0.00 in/hr0.0 mm/hr 0.04 in1.0 mm
02:32 PM 86.4°F30.2°C 69.0°F20.6°C 56% - N16091.8 kmh N -- 29.95 in1014.2 mb 0.00 in0.0 mm 0.00 in/hr0.0 mm/hr 0.04 in1.0 mm
02:38 PM 86.5°F30.3°C 66.3°F19.1°C 51% - N16091.8 kmh N -- 29.95 in1014.2 mb 0.00 in0.0 mm 0.00 in/hr0.0 mm/hr 0.04 in1.0 mm
02:43 PM 86.7°F30.4°C 66.5°F19.2°C 51% - N16091.8 kmh N -- 29.95 in1014.2 mb 0.00 in0.0 mm 0.00 in/hr0.0 mm/hr 0.04 in1.0 mm
02:49 PM 86.4°F30.2°C 66.2°F19.0°C 51% - N16091.8 kmh N -- 29.95 in1014.2 mb 0.00 in0.0 mm 0.00 in/hr0.0 mm/hr 0.04 in1.0 mm
02:54 PM 86.2°F30.1°C 66.0°F18.9°C 51% - N16091.8 kmh N -- 29.95 in1014.2 mb 0.00 in0.0 mm 0.00 in/hr0.0 mm/hr 0.04 in1.0 mm
02:59 PM 85.8°F29.9°C 67.1°F19.5°C 53% - N16091.8 kmh N -- 29.92 in1013.2 mb 0.00 in0.0 mm 0.00 in/hr0.0 mm/hr 0.04 in1.0 mm
03:04 PM 85.5°F29.7°C 65.4°F18.6°C 51% - N16091.8 kmh N -- 29.92 in1013.2 mb 0.00 in0.0 mm 0.00 in/hr0.0 mm/hr 0.04 in1.0 mm
03:09 PM 85.1°F29.5°C 66.4°F19.1°C 53% - N16091.8 kmh N -- 29.92 in1013.2 mb 0.00 in0.0 mm 0.00 in/hr0.0 mm/hr 0.04 in1.0 mm
03:14 PM 84.7°F29.3°C 66.1°F18.9°C 53% - N16091.8 kmh N -- 29.92 in1013.2 mb 0.00 in0.0 mm 0.00 in/hr0.0 mm/hr 0.04 in1.0 mm
03:20 PM 84.7°F29.3°C 69.9°F21.1°C 61% - N16091.8 kmh N -- 29.92 in1013.2 mb 0.00 in0.0 mm 0.00 in/hr0.0 mm/hr 0.04 in1.0 mm
03:25 PM 85.1°F29.5°C 69.1°F20.6°C 58% - N16091.8 kmh N -- 29.92 in1013.2 mb 0.00 in0.0 mm 0.00 in/hr0.0 mm/hr 0.04 in1.0 mm
03:30 PM 85.3°F29.6°C 68.0°F20.0°C 56% - N16091.8 kmh N -- 29.92 in1013.2 mb 0.00 in0.0 mm 0.00 in/hr0.0 mm/hr 0.04 in1.0 mm
03:35 PM 85.6°F29.8°C 69.5°F20.8°C 58% - N16091.8 kmh N -- 29.92 in1013.2 mb 0.00 in0.0 mm 0.00 in/hr0.0 mm/hr 0.04 in1.0 mm
03:40 PM 85.8°F29.9°C 68.4°F20.2°C 56% - N16091.8 kmh N -- 29.92 in1013.2 mb 0.00 in0.0 mm 0.00 in/hr0.0 mm/hr 0.04 in1.0 mm
03:45 PM 86.0°F30.0°C 67.3°F19.6°C 53% - N16091.8 kmh N -- 29.92 in1013.2 mb 0.00 in0.0 mm 0.00 in/hr0.0 mm/hr 0.04 in1.0 mm
03:52 PM 86.0°F30.0°C 65.9°F18.8°C 51% - N16091.8 kmh N -- 29.92 in1013.2 mb 0.00 in0.0 mm 0.00 in/hr0.0 mm/hr 0.04 in1.0 mm
03:57 PM 86.2°F30.1°C 68.8°F20.4°C 56% - N16091.8 kmh N -- 29.92 in1013.2 mb 0.00 in0.0 mm 0.00 in/hr0.0 mm/hr 0.04 in1.0 mm
04:03 PM 86.0°F30.0°C 68.6°F20.3°C 56% - N16091.8 kmh N -- 29.92 in1013.2 mb 0.00 in0.0 mm 0.00 in/hr0.0 mm/hr 0.04 in1.0 mm
04:08 PM 86.0°F30.0°C 68.6°F20.3°C 56% - N16091.8 kmh N -- 29.92 in1013.2 mb 0.00 in0.0 mm 0.00 in/hr0.0 mm/hr 0.04 in1.0 mm
04:15 PM 85.8°F29.9°C 68.4°F20.2°C 56% - N16091.8 kmh N -- 29.92 in1013.2 mb 0.00 in0.0 mm 0.00 in/hr0.0 mm/hr 0.04 in1.0 mm
04:20 PM 85.5°F29.7°C 69.4°F20.8°C 58% - N16091.8 kmh N -- 29.92 in1013.2 mb 0.00 in0.0 mm 0.00 in/hr0.0 mm/hr 0.04 in1.0 mm
04:25 PM 85.5°F29.7°C 68.1°F20.1°C 56% - N16091.8 kmh N -- 29.92 in1013.2 mb 0.00 in0.0 mm 0.00 in/hr0.0 mm/hr 0.04 in1.0 mm
04:30 PM 85.6°F29.8°C 68.2°F20.1°C 56% - N16091.8 kmh N -- 29.89 in1012.2 mb 0.00 in0.0 mm 0.00 in/hr0.0 mm/hr 0.04 in1.0 mm
04:36 PM 85.5°F29.7°C 69.4°F20.8°C 58% - N16091.8 kmh N -- 29.89 in1012.2 mb 0.00 in0.0 mm 0.00 in/hr0.0 mm/hr 0.04 in1.0 mm
04:41 PM 85.5°F29.7°C 69.4°F20.8°C 58% - N16091.8 kmh N -- 29.89 in1012.2 mb 0.00 in0.0 mm 0.00 in/hr0.0 mm/hr 0.04 in1.0 mm
04:46 PM 85.3°F29.6°C 69.2°F20.7°C 58% - N16091.8 kmh N -- 29.89 in1012.2 mb 0.00 in0.0 mm 0.00 in/hr0.0 mm/hr 0.04 in1.0 mm
04:51 PM 85.1°F29.5°C 70.3°F21.3°C 61% - N16091.8 kmh N -- 29.89 in1012.2 mb 0.00 in0.0 mm 0.00 in/hr0.0 mm/hr 0.04 in1.0 mm
04:56 PM 85.1°F29.5°C 70.3°F21.3°C 61% - N16091.8 kmh N -- 29.89 in1012.2 mb 0.00 in0.0 mm 0.00 in/hr0.0 mm/hr 0.04 in1.0 mm
05:01 PM 85.3°F29.6°C 70.5°F21.4°C 61% - N16091.8 kmh N -- 29.89 in1012.2 mb 0.00 in0.0 mm 0.00 in/hr0.0 mm/hr 0.04 in1.0 mm
05:06 PM 85.5°F29.7°C 70.7°F21.5°C 61% - N16091.8 kmh N -- 29.89 in1012.2 mb 0.00 in0.0 mm 0.00 in/hr0.0 mm/hr 0.04 in1.0 mm
05:11 PM 85.6°F29.8°C 71.9°F22.2°C 63% - N16091.8 kmh N -- 29.89 in1012.2 mb 0.00 in0.0 mm 0.00 in/hr0.0 mm/hr 0.04 in1.0 mm
05:17 PM 85.8°F29.9°C 70.9°F21.6°C 61% - N16091.8 kmh N -- 29.89 in1012.2 mb 0.00 in0.0 mm 0.00 in/hr0.0 mm/hr 0.04 in1.0 mm
05:22 PM 85.6°F29.8°C 69.5°F20.8°C 58% - N16091.8 kmh N -- 29.89 in1012.2 mb 0.00 in0.0 mm 0.00 in/hr0.0 mm/hr 0.04 in1.0 mm
05:27 PM 85.6°F29.8°C 68.2°F20.1°C 56% - N16091.8 kmh N -- 29.89 in1012.2 mb 0.00 in0.0 mm 0.00 in/hr0.0 mm/hr 0.04 in1.0 mm
05:32 PM 85.5°F29.7°C 68.1°F20.1°C 56% - N16091.8 kmh N -- 29.89 in1012.2 mb 0.00 in0.0 mm 0.00 in/hr0.0 mm/hr 0.04 in1.0 mm
05:37 PM 85.5°F29.7°C 66.8°F19.3°C 53% - N16091.8 kmh N -- 29.89 in1012.2 mb 0.00 in0.0 mm 0.00 in/hr0.0 mm/hr 0.04 in1.0 mm
05:42 PM 85.5°F29.7°C 66.8°F19.3°C 53% - N16091.8 kmh N -- 29.86 in1011.2 mb 0.00 in0.0 mm 0.00 in/hr0.0 mm/hr 0.04 in1.0 mm
05:48 PM 85.5°F29.7°C 66.8°F19.3°C 53% - N16091.8 kmh N -- 29.86 in1011.2 mb 0.00 in0.0 mm 0.00 in/hr0.0 mm/hr 0.04 in1.0 mm
05:53 PM 85.3°F29.6°C 68.0°F20.0°C 56% - N16091.8 kmh N -- 29.86 in1011.2 mb 0.00 in0.0 mm 0.00 in/hr0.0 mm/hr 0.04 in1.0 mm
05:59 PM 85.1°F29.5°C 70.3°F21.3°C 61% - N16091.8 kmh N -- 29.86 in1011.2 mb 0.00 in0.0 mm 0.00 in/hr0.0 mm/hr 0.04 in1.0 mm
06:04 PM 84.7°F29.3°C 71.1°F21.7°C 63% - N16091.8 kmh N -- 29.86 in1011.2 mb 0.00 in0.0 mm 0.00 in/hr0.0 mm/hr 0.04 in1.0 mm
06:09 PM 84.6°F29.2°C 71.0°F21.7°C 63% - N16091.8 kmh N -- 29.86 in1011.2 mb 0.00 in0.0 mm 0.00 in/hr0.0 mm/hr 0.04 in1.0 mm
06:14 PM 84.2°F29.0°C 70.6°F21.4°C 63% - N16091.8 kmh N -- 29.86 in1011.2 mb 0.00 in0.0 mm 0.00 in/hr0.0 mm/hr 0.04 in1.0 mm
06:19 PM 84.0°F28.9°C 71.5°F21.9°C 66% - N16091.8 kmh N -- 29.86 in1011.2 mb 0.00 in0.0 mm 0.00 in/hr0.0 mm/hr 0.04 in1.0 mm
06:24 PM 83.7°F28.7°C 71.3°F21.8°C 66% - N16091.8 kmh N -- 29.86 in1011.2 mb 0.00 in0.0 mm 0.00 in/hr0.0 mm/hr 0.04 in1.0 mm
06:30 PM 83.5°F28.6°C 72.1°F22.3°C 68% - N16091.8 kmh N -- 29.86 in1011.2 mb 0.00 in0.0 mm 0.00 in/hr0.0 mm/hr 0.04 in1.0 mm
06:35 PM 83.1°F28.4°C 71.8°F22.1°C 68% - N16091.8 kmh N -- 29.86 in1011.2 mb 0.00 in0.0 mm 0.00 in/hr0.0 mm/hr 0.04 in1.0 mm
06:41 PM 82.9°F28.3°C 72.6°F22.6°C 71% - N16091.8 kmh N -- 29.86 in1011.2 mb 0.00 in0.0 mm 0.00 in/hr0.0 mm/hr 0.04 in1.0 mm
06:46 PM 82.6°F28.1°C 73.3°F22.9°C 73% - N16091.8 kmh N -- 29.86 in1011.2 mb 0.00 in0.0 mm 0.00 in/hr0.0 mm/hr 0.04 in1.0 mm
06:51 PM 82.4°F28.0°C 74.1°F23.4°C 76% - N16091.8 kmh N -- 29.86 in1011.2 mb 0.00 in0.0 mm 0.00 in/hr0.0 mm/hr 0.04 in1.0 mm
06:56 PM 82.0°F27.8°C 74.6°F23.7°C 78% - N16091.8 kmh N -- 29.86 in1011.2 mb 0.00 in0.0 mm 0.00 in/hr0.0 mm/hr 0.04 in1.0 mm
07:02 PM 81.7°F27.6°C 74.3°F23.5°C 78% - N16091.8 kmh N -- 29.86 in1011.2 mb 0.00 in0.0 mm 0.00 in/hr0.0 mm/hr 0.04 in1.0 mm
07:07 PM 81.3°F27.4°C 73.9°F23.3°C 78% - N16091.8 kmh N -- 29.86 in1011.2 mb 0.00 in0.0 mm 0.00 in/hr0.0 mm/hr 0.04 in1.0 mm
07:12 PM 81.1°F27.3°C 73.7°F23.2°C 78% - N16091.8 kmh N -- 29.86 in1011.2 mb 0.00 in0.0 mm 0.00 in/hr0.0 mm/hr 0.04 in1.0 mm
07:17 PM 81.0°F27.2°C 73.6°F23.1°C 78% - N16091.8 kmh N -- 29.86 in1011.2 mb 0.00 in0.0 mm 0.00 in/hr0.0 mm/hr 0.04 in1.0 mm
07:23 PM 80.8°F27.1°C 74.3°F23.5°C 81% - N16091.8 kmh N -- 29.86 in1011.2 mb 0.00 in0.0 mm 0.00 in/hr0.0 mm/hr 0.04 in1.0 mm
07:28 PM 80.8°F27.1°C 74.3°F23.5°C 81% - N16091.8 kmh N -- 29.86 in1011.2 mb 0.00 in0.0 mm 0.00 in/hr0.0 mm/hr 0.04 in1.0 mm
07:34 PM 80.8°F27.1°C 75.2°F24.0°C 83% - N16091.8 kmh N -- 29.86 in1011.2 mb 0.00 in0.0 mm 0.00 in/hr0.0 mm/hr 0.04 in1.0 mm
07:38 PM 80.6°F27.0°C 75.9°F24.4°C 85% - N16091.8 kmh N -- 29.86 in1011.2 mb 0.00 in0.0 mm 0.00 in/hr0.0 mm/hr 0.04 in1.0 mm
07:43 PM 80.4°F26.9°C 76.5°F24.7°C 88% - N16091.8 kmh N -- 29.86 in1011.2 mb 0.00 in0.0 mm 0.00 in/hr0.0 mm/hr 0.04 in1.0 mm
07:48 PM 80.2°F26.8°C 75.5°F24.2°C 85% - N16091.8 kmh N -- 29.86 in1011.2 mb 0.00 in0.0 mm 0.00 in/hr0.0 mm/hr 0.04 in1.0 mm
07:54 PM 80.2°F26.8°C 75.5°F24.2°C 85% - N16091.8 kmh N -- 29.86 in1011.2 mb 0.00 in0.0 mm 0.00 in/hr0.0 mm/hr 0.04 in1.0 mm
07:59 PM 80.1°F26.7°C 75.4°F24.1°C 85% - N16091.8 kmh N -- 29.86 in1011.2 mb 0.00 in0.0 mm 0.00 in/hr0.0 mm/hr 0.04 in1.0 mm
08:05 PM 80.1°F26.7°C 76.2°F24.6°C 88% - N16091.8 kmh N -- 29.86 in1011.2 mb 0.00 in0.0 mm 0.00 in/hr0.0 mm/hr 0.04 in1.0 mm
08:10 PM 79.9°F26.6°C 76.8°F24.9°C 90% - N16091.8 kmh N -- 29.86 in1011.2 mb 0.00 in0.0 mm 0.00 in/hr0.0 mm/hr 0.04 in1.0 mm
08:15 PM 79.9°F26.6°C 78.4°F25.8°C 95% - N16091.8 kmh N -- 29.86 in1011.2 mb 0.00 in0.0 mm 0.00 in/hr0.0 mm/hr 0.04 in1.0 mm
08:20 PM 79.9°F26.6°C 78.4°F25.8°C 95% - N16091.8 kmh N -- 29.86 in1011.2 mb 0.00 in0.0 mm 0.00 in/hr0.0 mm/hr 0.04 in1.0 mm
08:26 PM 79.5°F26.4°C 78.0°F25.6°C 95% - N16091.8 kmh N -- 29.86 in1011.2 mb 0.00 in0.0 mm 0.00 in/hr0.0 mm/hr 0.04 in1.0 mm
08:31 PM 79.3°F26.3°C 79.3°F26.3°C 100% - N16091.8 kmh N -- 29.86 in1011.2 mb 0.00 in0.0 mm 0.00 in/hr0.0 mm/hr 0.04 in1.0 mm
08:36 PM 79.0°F26.1°C 79.0°F26.1°C 100% - N16091.8 kmh N -- 29.86 in1011.2 mb 0.00 in0.0 mm 0.00 in/hr0.0 mm/hr 0.04 in1.0 mm
08:41 PM 78.8°F26.0°C 78.8°F26.0°C 100% - N16091.8 kmh N -- 29.86 in1011.2 mb 0.00 in0.0 mm 0.00 in/hr0.0 mm/hr 0.04 in1.0 mm
08:46 PM 79.0°F26.1°C 77.5°F25.3°C 95% - N16091.8 kmh N -- 29.86 in1011.2 mb 0.00 in0.0 mm 0.00 in/hr0.0 mm/hr 0.04 in1.0 mm
08:51 PM 79.3°F26.3°C 77.0°F25.0°C 93% - N16091.8 kmh N -- 29.86 in1011.2 mb 0.00 in0.0 mm 0.00 in/hr0.0 mm/hr 0.04 in1.0 mm
08:57 PM 79.9°F26.6°C 76.0°F24.4°C 88% - N16091.8 kmh N -- 29.86 in1011.2 mb 0.00 in0.0 mm 0.00 in/hr0.0 mm/hr 0.04 in1.0 mm
09:02 PM 80.1°F26.7°C 75.4°F24.1°C 85% - N16091.8 kmh N -- 29.86 in1011.2 mb 0.00 in0.0 mm 0.00 in/hr0.0 mm/hr 0.04 in1.0 mm
09:08 PM 80.4°F26.9°C 74.8°F23.8°C 83% - N16091.8 kmh N -- 29.86 in1011.2 mb 0.00 in0.0 mm 0.00 in/hr0.0 mm/hr 0.04 in1.0 mm
09:13 PM 80.6°F27.0°C 74.1°F23.4°C 81% - N16091.8 kmh N -- 29.86 in1011.2 mb 0.00 in0.0 mm 0.00 in/hr0.0 mm/hr 0.04 in1.0 mm
09:18 PM 80.8°F27.1°C 74.3°F23.5°C 81% - N16091.8 kmh N -- 29.86 in1011.2 mb 0.00 in0.0 mm 0.00 in/hr0.0 mm/hr 0.04 in1.0 mm
09:23 PM 80.6°F27.0°C 74.1°F23.4°C 81% - N16091.8 kmh N -- 29.86 in1011.2 mb 0.00 in0.0 mm 0.00 in/hr0.0 mm/hr 0.04 in1.0 mm
09:28 PM 80.8°F27.1°C 75.2°F24.0°C 83% - N16091.8 kmh N -- 29.86 in1011.2 mb 0.00 in0.0 mm 0.00 in/hr0.0 mm/hr 0.04 in1.0 mm
09:33 PM 81.0°F27.2°C 75.4°F24.1°C 83% - N16091.8 kmh N -- 29.86 in1011.2 mb 0.00 in0.0 mm 0.00 in/hr0.0 mm/hr 0.04 in1.0 mm
09:38 PM 81.0°F27.2°C 75.4°F24.1°C 83% - N16091.8 kmh N -- 29.86 in1011.2 mb 0.00 in0.0 mm 0.00 in/hr0.0 mm/hr 0.04 in1.0 mm
09:43 PM 81.1°F27.3°C 75.5°F24.2°C 83% - N16091.8 kmh N -- 29.86 in1011.2 mb 0.00 in0.0 mm 0.00 in/hr0.0 mm/hr 0.04 in1.0 mm
09:48 PM 81.1°F27.3°C 75.5°F24.2°C 83% - N16091.8 kmh N -- 29.86 in1011.2 mb 0.00 in0.0 mm 0.00 in/hr0.0 mm/hr 0.04 in1.0 mm
09:53 PM 81.1°F27.3°C 76.4°F24.7°C 85% - N16091.8 kmh N -- 29.86 in1011.2 mb 0.00 in0.0 mm 0.00 in/hr0.0 mm/hr 0.04 in1.0 mm
09:58 PM 81.1°F27.3°C 76.4°F24.7°C 85% - N16091.8 kmh N -- 29.83 in1010.2 mb 0.00 in0.0 mm 0.00 in/hr0.0 mm/hr 0.04 in1.0 mm
10:03 PM 81.3°F27.4°C 76.6°F24.8°C 85% - N16091.8 kmh N -- 29.83 in1010.2 mb 0.00 in0.0 mm 0.00 in/hr0.0 mm/hr 0.04 in1.0 mm
10:08 PM 81.1°F27.3°C 76.4°F24.7°C 85% - N16091.8 kmh N -- 29.83 in1010.2 mb 0.00 in0.0 mm 0.00 in/hr0.0 mm/hr 0.04 in1.0 mm
10:13 PM 81.1°F27.3°C 77.2°F25.1°C 88% - N16091.8 kmh N -- 29.83 in1010.2 mb 0.00 in0.0 mm 0.00 in/hr0.0 mm/hr 0.04 in1.0 mm
10:18 PM 81.0°F27.2°C 77.1°F25.1°C 88% - N16091.8 kmh N -- 29.83 in1010.2 mb 0.00 in0.0 mm 0.00 in/hr0.0 mm/hr 0.04 in1.0 mm
10:23 PM 81.0°F27.2°C 75.4°F24.1°C 83% - N16091.8 kmh N -- 29.83 in1010.2 mb 0.00 in0.0 mm 0.00 in/hr0.0 mm/hr 0.04 in1.0 mm
10:28 PM 81.1°F27.3°C 74.6°F23.7°C 81% - N16091.8 kmh N -- 29.77 in1008.1 mb 0.00 in0.0 mm 0.00 in/hr0.0 mm/hr 0.04 in1.0 mm
10:33 PM 81.3°F27.4°C 74.8°F23.8°C 81% - N16091.8 kmh N -- 29.77 in1008.1 mb 0.00 in0.0 mm 0.00 in/hr0.0 mm/hr 0.04 in1.0 mm
10:38 PM 81.3°F27.4°C 73.9°F23.3°C 78% - N16091.8 kmh N -- 29.77 in1008.1 mb 0.00 in0.0 mm 0.00 in/hr0.0 mm/hr 0.04 in1.0 mm
10:43 PM 81.3°F27.4°C 73.9°F23.3°C 78% - N16091.8 kmh N -- 29.80 in1009.1 mb 0.00 in0.0 mm 0.00 in/hr0.0 mm/hr 0.04 in1.0 mm
10:49 PM 81.5°F27.5°C 74.1°F23.4°C 78% - N16091.8 kmh N -- 29.80 in1009.1 mb 0.00 in0.0 mm 0.00 in/hr0.0 mm/hr 0.04 in1.0 mm
10:54 PM 81.5°F27.5°C 74.1°F23.4°C 78% - N16091.8 kmh N -- 29.80 in1009.1 mb 0.00 in0.0 mm 0.00 in/hr0.0 mm/hr 0.04 in1.0 mm
10:59 PM 81.7°F27.6°C 74.3°F23.5°C 78% - N16091.8 kmh N -- 29.83 in1010.2 mb 0.00 in0.0 mm 0.00 in/hr0.0 mm/hr 0.04 in1.0 mm
11:04 PM 81.7°F27.6°C 74.3°F23.5°C 78% - N16091.8 kmh N -- 29.83 in1010.2 mb 0.00 in0.0 mm 0.00 in/hr0.0 mm/hr 0.04 in1.0 mm
11:10 PM 81.7°F27.6°C 74.3°F23.5°C 78% - N16091.8 kmh N -- 29.83 in1010.2 mb 0.00 in0.0 mm 0.00 in/hr0.0 mm/hr 0.04 in1.0 mm
11:15 PM 81.7°F27.6°C 74.3°F23.5°C 78% - N16091.8 kmh N -- 29.83 in1010.2 mb 0.00 in0.0 mm 0.00 in/hr0.0 mm/hr 0.04 in1.0 mm
11:20 PM 81.5°F27.5°C 74.1°F23.4°C 78% - N16091.8 kmh N -- 29.83 in1010.2 mb 0.00 in0.0 mm 0.00 in/hr0.0 mm/hr 0.04 in1.0 mm
11:25 PM 81.5°F27.5°C 73.2°F22.9°C 76% - N16091.8 kmh N -- 29.83 in1010.2 mb 0.00 in0.0 mm 0.00 in/hr0.0 mm/hr 0.04 in1.0 mm
11:30 PM 81.3°F27.4°C 72.1°F22.3°C 73% - N16091.8 kmh N -- 29.83 in1010.2 mb 0.00 in0.0 mm 0.00 in/hr0.0 mm/hr 0.04 in1.0 mm
11:35 PM 81.3°F27.4°C 65.5°F18.6°C 58% - N16091.8 kmh N -- 29.83 in1010.2 mb 0.00 in0.0 mm 0.00 in/hr0.0 mm/hr 0.04 in1.0 mm
11:40 PM 81.1°F27.3°C 62.7°F17.1°C 53% - N16091.8 kmh N -- 29.83 in1010.2 mb 0.00 in0.0 mm 0.00 in/hr0.0 mm/hr 0.04 in1.0 mm
11:45 PM 81.1°F27.3°C 61.3°F16.3°C 51% - N16091.8 kmh N -- 29.83 in1010.2 mb 0.00 in0.0 mm 0.00 in/hr0.0 mm/hr 0.04 in1.0 mm
11:50 PM 81.0°F27.2°C 58.3°F14.6°C 46% - N16091.8 kmh N -- 29.83 in1010.2 mb 0.00 in0.0 mm 0.00 in/hr0.0 mm/hr 0.04 in1.0 mm
11:55 PM 80.6°F27.0°C 57.9°F14.4°C 46% - N16091.8 kmh N -- 29.83 in1010.2 mb 0.00 in0.0 mm 0.00 in/hr0.0 mm/hr 0.04 in1.0 mm